createdAt,value
2023-05-16T20:35:11.262Z,97838.53
2023-05-16T20:37:40.851Z,97836.16
2023-05-16T20:40:09.157Z,97833.78
2023-05-16T20:42:36.462Z,97831.38
2023-05-16T20:45:04.182Z,97827.72
2023-05-16T20:47:32.318Z,97833.75
2023-05-16T20:49:59.383Z,97823.50
2023-05-16T20:52:27.594Z,97813.34
2023-05-16T20:54:55.267Z,97820.13
2023-05-16T20:57:22.969Z,97819.06
2023-05-16T20:59:50.165Z,97805.78
2023-05-16T21:02:17.370Z,97807.44
2023-05-16T21:04:44.487Z,97799.56
2023-05-16T21:07:12.112Z,97801.72
2023-05-16T21:09:39.820Z,97796.31
2023-05-16T21:12:09.322Z,97801.38
2023-05-16T21:14:36.947Z,97790.81
2023-05-16T21:17:04.600Z,97788.63
2023-05-16T21:19:34.362Z,97791.31
2023-05-16T21:22:03.997Z,97785.34
2023-05-16T21:24:35.323Z,97777.81
2023-05-16T21:27:03.560Z,97778.31
2023-05-16T21:29:31.305Z,97772.09
2023-05-16T21:31:58.840Z,97777.19
2023-05-16T21:34:26.560Z,97777.09
2023-05-16T21:36:54.044Z,97767.09
2023-05-16T21:39:21.469Z,97771.13
2023-05-16T21:41:48.587Z,97760.56
2023-05-16T21:44:18.201Z,97748.13
2023-05-16T21:46:45.572Z,97743.78
2023-05-16T21:49:12.668Z,97740.84
2023-05-16T21:51:40.239Z,97741.09
2023-05-16T21:54:07.368Z,97751.06
2023-05-16T21:56:34.427Z,97740.03
2023-05-16T21:59:02.267Z,97738.38
2023-05-16T22:01:29.651Z,97741.34
2023-05-16T22:03:57.203Z,97730.78
2023-05-16T22:06:24.665Z,97726.97
2023-05-16T22:08:52.478Z,97732.09
2023-05-16T22:11:19.860Z,97728.34
2023-05-16T22:13:47.025Z,97724.31
2023-05-16T22:16:14.177Z,97723.75
2023-05-16T22:18:41.460Z,97726.44
2023-05-16T22:21:09.006Z,97715.31
2023-05-16T22:23:36.197Z,97718.91
2023-05-16T22:26:04.038Z,97721.66
2023-05-16T22:28:31.816Z,97713.63
2023-05-16T22:30:59.063Z,97717.47
2023-05-16T22:33:26.617Z,97696.41
2023-05-16T22:35:54.674Z,97693.50
2023-05-16T22:38:22.090Z,97689.47
2023-05-16T22:40:49.279Z,97683.25
2023-05-16T22:43:16.477Z,97674.94
2023-05-16T22:45:44.145Z,97670.66
2023-05-16T22:48:11.708Z,97662.53
2023-05-16T22:50:39.056Z,97673.34
2023-05-16T22:53:06.777Z,97671.19
2023-05-16T22:55:34.622Z,97682.56
2023-05-16T22:58:02.450Z,97682.06
2023-05-16T23:00:29.879Z,97666.13
2023-05-16T23:02:57.132Z,97671.38
2023-05-16T23:05:24.273Z,97685.19
2023-05-16T23:07:51.682Z,97667.69
2023-05-16T23:10:19.179Z,97666.13
2023-05-16T23:12:46.356Z,97664.59
2023-05-16T23:15:13.558Z,97659.81
2023-05-16T23:17:41.416Z,97653.06
2023-05-16T23:20:08.837Z,97655.25
2023-05-16T23:22:36.169Z,97642.53
2023-05-16T23:25:03.744Z,97636.31
2023-05-16T23:27:31.899Z,97638.25
2023-05-16T23:29:59.385Z,97646.97
2023-05-16T23:32:27.050Z,97644.84
2023-05-16T23:34:55.266Z,97641.94
2023-05-16T23:37:22.443Z,97649.09
2023-05-16T23:39:49.547Z,97631.53
2023-05-16T23:42:16.525Z,97641.06
2023-05-16T23:44:44.009Z,97647.88
2023-05-16T23:47:11.450Z,97650.38
2023-05-16T23:49:38.530Z,97650.41
2023-05-16T23:52:06.421Z,97648.22
2023-05-16T23:54:34.021Z,97657.94
2023-05-16T23:57:01.387Z,97652.25
2023-05-16T23:59:28.723Z,97646.06
